sensor_id;sensor_type;location;lat;lon;timestamp;temperature;humidity
15231;DHT22;32569;51.762;8.564;2023-07-22T00:00:49;14.20;99.90
15231;DHT22;32569;51.762;8.564;2023-07-22T00:03:16;14.30;99.90
15231;DHT22;32569;51.762;8.564;2023-07-22T00:05:42;14.20;99.90
15231;DHT22;32569;51.762;8.564;2023-07-22T00:08:09;14.20;99.90
15231;DHT22;32569;51.762;8.564;2023-07-22T00:10:40;14.30;99.90
15231;DHT22;32569;51.762;8.564;2023-07-22T00:13:07;14.30;99.90
15231;DHT22;32569;51.762;8.564;2023-07-22T00:15:35;14.40;99.90
15231;DHT22;32569;51.762;8.564;2023-07-22T00:18:02;14.20;99.90
15231;DHT22;32569;51.762;8.564;2023-07-22T00:20:28;14.20;99.90
15231;DHT22;32569;51.762;8.564;2023-07-22T00:22:55;14.30;99.90
15231;DHT22;32569;51.762;8.564;2023-07-22T00:25:22;14.30;99.90
15231;DHT22;32569;51.762;8.564;2023-07-22T00:27:49;14.30;99.90
15231;DHT22;32569;51.762;8.564;2023-07-22T00:30:15;14.40;99.90
15231;DHT22;32569;51.762;8.564;2023-07-22T00:32:44;14.40;99.90
15231;DHT22;32569;51.762;8.564;2023-07-22T00:35:11;14.30;99.90
15231;DHT22;32569;51.762;8.564;2023-07-22T00:37:38;14.30;99.90
15231;DHT22;32569;51.762;8.564;2023-07-22T00:40:05;14.40;99.90
15231;DHT22;32569;51.762;8.564;2023-07-22T00:42:37;14.30;99.90
15231;DHT22;32569;51.762;8.564;2023-07-22T00:45:05;14.30;99.90
15231;DHT22;32569;51.762;8.564;2023-07-22T00:47:32;14.20;99.90
15231;DHT22;32569;51.762;8.564;2023-07-22T00:50:02;14.20;99.90
15231;DHT22;32569;51.762;8.564;2023-07-22T00:52:29;14.20;99.90
15231;DHT22;32569;51.762;8.564;2023-07-22T00:54:56;14.20;99.90
15231;DHT22;32569;51.762;8.564;2023-07-22T00:57:22;14.20;99.90
15231;DHT22;32569;51.762;8.564;2023-07-22T00:59:49;14.20;99.90
15231;DHT22;32569;51.762;8.564;2023-07-22T01:02:16;14.10;99.90
15231;DHT22;32569;51.762;8.564;2023-07-22T01:04:44;14.10;99.90
15231;DHT22;32569;51.762;8.564;2023-07-22T01:07:13;14.10;99.90
15231;DHT22;32569;51.762;8.564;2023-07-22T01:09:41;14.00;99.90
15231;DHT22;32569;51.762;8.564;2023-07-22T01:12:09;14.00;99.90
15231;DHT22;32569;51.762;8.564;2023-07-22T01:14:37;14.10;99.90
15231;DHT22;32569;51.762;8.564;2023-07-22T01:17:05;14.00;99.90
15231;DHT22;32569;51.762;8.564;2023-07-22T01:19:33;13.90;99.90
15231;DHT22;32569;51.762;8.564;2023-07-22T01:22:00;13.90;99.90
15231;DHT22;32569;51.762;8.564;2023-07-22T01:24:29;13.90;99.90
15231;DHT22;32569;51.762;8.564;2023-07-22T01:26:56;13.80;99.90
15231;DHT22;32569;51.762;8.564;2023-07-22T01:29:23;13.90;99.90
15231;DHT22;32569;51.762;8.564;2023-07-22T01:31:51;13.90;99.90
15231;DHT22;32569;51.762;8.564;2023-07-22T01:34:19;13.90;99.90
15231;DHT22;32569;51.762;8.564;2023-07-22T01:36:46;13.80;99.90
15231;DHT22;32569;51.762;8.564;2023-07-22T01:39:13;13.80;99.90
15231;DHT22;32569;51.762;8.564;2023-07-22T01:41:42;13.80;99.90
15231;DHT22;32569;51.762;8.564;2023-07-22T01:44:09;13.80;99.90
15231;DHT22;32569;51.762;8.564;2023-07-22T01:46:36;13.90;99.90
15231;DHT22;32569;51.762;8.564;2023-07-22T01:49:05;13.80;99.90
15231;DHT22;32569;51.762;8.564;2023-07-22T01:51:32;13.90;99.90
15231;DHT22;32569;51.762;8.564;2023-07-22T01:53:58;13.90;99.90
15231;DHT22;32569;51.762;8.564;2023-07-22T01:56:26;13.90;99.90
15231;DHT22;32569;51.762;8.564;2023-07-22T01:58:54;14.00;99.90
15231;DHT22;32569;51.762;8.564;2023-07-22T02:01:21;14.00;99.90
15231;DHT22;32569;51.762;8.564;2023-07-22T02:03:47;14.10;99.90
15231;DHT22;32569;51.762;8.564;2023-07-22T02:06:14;14.00;99.90
15231;DHT22;32569;51.762;8.564;2023-07-22T02:08:41;14.00;99.90
15231;DHT22;32569;51.762;8.564;2023-07-22T02:11:08;14.10;99.90
15231;DHT22;32569;51.762;8.564;2023-07-22T02:13:35;14.10;99.90
15231;DHT22;32569;51.762;8.564;2023-07-22T02:16:03;14.10;99.90
15231;DHT22;32569;51.762;8.564;2023-07-22T02:18:30;14.20;99.90
15231;DHT22;32569;51.762;8.564;2023-07-22T02:20:57;14.10;99.90
15231;DHT22;32569;51.762;8.564;2023-07-22T02:23:24;14.10;99.90
15231;DHT22;32569;51.762;8.564;2023-07-22T02:25:51;14.00;99.90
15231;DHT22;32569;51.762;8.564;2023-07-22T02:28:19;14.10;99.90
15231;DHT22;32569;51.762;8.564;2023-07-22T02:30:46;14.20;99.90
15231;DHT22;32569;51.762;8.564;2023-07-22T02:33:15;14.20;99.90
15231;DHT22;32569;51.762;8.564;2023-07-22T02:35:42;14.20;99.90
15231;DHT22;32569;51.762;8.564;2023-07-22T02:38:09;14.20;99.90
15231;DHT22;32569;51.762;8.564;2023-07-22T02:40:35;14.20;99.90
15231;DHT22;32569;51.762;8.564;2023-07-22T02:43:02;14.20;99.90
15231;DHT22;32569;51.762;8.564;2023-07-22T02:45:30;14.20;99.90
15231;DHT22;32569;51.762;8.564;2023-07-22T02:47:57;14.20;99.90
15231;DHT22;32569;51.762;8.564;2023-07-22T02:50:25;14.10;99.90
15231;DHT22;32569;51.762;8.564;2023-07-22T02:52:52;14.10;99.90
15231;DHT22;32569;51.762;8.564;2023-07-22T02:55:18;14.10;99.90
15231;DHT22;32569;51.762;8.564;2023-07-22T02:57:46;14.10;99.90
15231;DHT22;32569;51.762;8.564;2023-07-22T03:00:15;14.10;99.90
15231;DHT22;32569;51.762;8.564;2023-07-22T03:02:49;14.10;99.90
15231;DHT22;32569;51.762;8.564;2023-07-22T03:05:16;14.10;99.90
15231;DHT22;32569;51.762;8.564;2023-07-22T03:07:45;14.10;99.90
15231;DHT22;32569;51.762;8.564;2023-07-22T03:10:11;14.20;99.90
15231;DHT22;32569;51.762;8.564;2023-07-22T03:12:38;14.20;99.90
15231;DHT22;32569;51.762;8.564;2023-07-22T03:15:06;14.20;99.90
15231;DHT22;32569;51.762;8.564;2023-07-22T03:17:34;14.10;99.90
15231;DHT22;32569;51.762;8.564;2023-07-22T03:20:02;14.10;99.90
15231;DHT22;32569;51.762;8.564;2023-07-22T03:22:31;14.10;99.90
15231;DHT22;32569;51.762;8.564;2023-07-22T03:24:59;14.10;99.90
15231;DHT22;32569;51.762;8.564;2023-07-22T03:27:26;14.20;99.90
15231;DHT22;32569;51.762;8.564;2023-07-22T03:29:52;14.20;99.90
15231;DHT22;32569;51.762;8.564;2023-07-22T03:32:19;14.20;99.90
15231;DHT22;32569;51.762;8.564;2023-07-22T03:34:46;14.10;99.90
15231;DHT22;32569;51.762;8.564;2023-07-22T03:37:12;14.10;99.90
15231;DHT22;32569;51.762;8.564;2023-07-22T03:39:40;14.10;99.90
15231;DHT22;32569;51.762;8.564;2023-07-22T03:42:08;14.10;99.90
15231;DHT22;32569;51.762;8.564;2023-07-22T03:44:35;14.00;99.90
15231;DHT22;32569;51.762;8.564;2023-07-22T03:47:01;14.10;99.90
15231;DHT22;32569;51.762;8.564;2023-07-22T03:49:28;14.10;99.90
15231;DHT22;32569;51.762;8.564;2023-07-22T03:51:55;14.10;99.90
15231;DHT22;32569;51.762;8.564;2023-07-22T03:54:22;14.10;99.90
15231;DHT22;32569;51.762;8.564;2023-07-22T03:56:48;14.20;99.90
15231;DHT22;32569;51.762;8.564;2023-07-22T03:59:16;14.20;99.90
15231;DHT22;32569;51.762;8.564;2023-07-22T04:01:43;14.20;99.90
15231;DHT22;32569;51.762;8.564;2023-07-22T04:04:10;14.10;99.90
15231;DHT22;32569;51.762;8.564;2023-07-22T04:06:36;14.10;99.90
15231;DHT22;32569;51.762;8.564;2023-07-22T04:09:03;14.10;99.90
15231;DHT22;32569;51.762;8.564;2023-07-22T04:11:30;14.20;99.90
15231;DHT22;32569;51.762;8.564;2023-07-22T04:13:56;14.30;99.90
15231;DHT22;32569;51.762;8.564;2023-07-22T04:16:24;14.40;99.90
15231;DHT22;32569;51.762;8.564;2023-07-22T04:18:51;14.30;99.90
15231;DHT22;32569;51.762;8.564;2023-07-22T04:21:18;14.30;99.90
15231;DHT22;32569;51.762;8.564;2023-07-22T04:23:44;14.20;99.90
15231;DHT22;32569;51.762;8.564;2023-07-22T04:26:11;14.30;99.90
15231;DHT22;32569;51.762;8.564;2023-07-22T04:28:38;14.30;99.90
15231;DHT22;32569;51.762;8.564;2023-07-22T04:31:05;14.30;99.90
15231;DHT22;32569;51.762;8.564;2023-07-22T04:33:33;14.30;99.90
15231;DHT22;32569;51.762;8.564;2023-07-22T04:36:00;14.40;99.90
15231;DHT22;32569;51.762;8.564;2023-07-22T04:38:26;14.40;99.90
15231;DHT22;32569;51.762;8.564;2023-07-22T04:40:53;14.40;99.90
15231;DHT22;32569;51.762;8.564;2023-07-22T04:43:20;14.40;99.90
15231;DHT22;32569;51.762;8.564;2023-07-22T04:45:47;14.50;99.90
15231;DHT22;32569;51.762;8.564;2023-07-22T04:48:14;14.50;99.90
15231;DHT22;32569;51.762;8.564;2023-07-22T04:50:43;14.50;99.90
15231;DHT22;32569;51.762;8.564;2023-07-22T04:53:11;14.50;99.90
15231;DHT22;32569;51.762;8.564;2023-07-22T04:55:39;14.50;99.90
15231;DHT22;32569;51.762;8.564;2023-07-22T04:58:06;14.50;99.90
15231;DHT22;32569;51.762;8.564;2023-07-22T05:00:33;14.60;99.90
15231;DHT22;32569;51.762;8.564;2023-07-22T05:03:00;14.50;99.90
15231;DHT22;32569;51.762;8.564;2023-07-22T05:05:27;14.50;99.90
15231;DHT22;32569;51.762;8.564;2023-07-22T05:07:55;14.50;99.90
15231;DHT22;32569;51.762;8.564;2023-07-22T05:10:22;14.30;99.90
15231;DHT22;32569;51.762;8.564;2023-07-22T05:12:49;14.30;99.90
15231;DHT22;32569;51.762;8.564;2023-07-22T05:15:15;14.30;99.90
15231;DHT22;32569;51.762;8.564;2023-07-22T05:17:42;14.10;99.90
15231;DHT22;32569;51.762;8.564;2023-07-22T05:20:09;14.00;99.90
15231;DHT22;32569;51.762;8.564;2023-07-22T05:22:38;13.90;99.90
15231;DHT22;32569;51.762;8.564;2023-07-22T05:25:07;13.90;99.90
15231;DHT22;32569;51.762;8.564;2023-07-22T05:27:35;13.90;99.90
15231;DHT22;32569;51.762;8.564;2023-07-22T05:30:02;13.90;99.90
15231;DHT22;32569;51.762;8.564;2023-07-22T05:32:29;13.90;99.90
15231;DHT22;32569;51.762;8.564;2023-07-22T05:34:56;14.00;99.90
15231;DHT22;32569;51.762;8.564;2023-07-22T05:37:23;14.10;99.90
15231;DHT22;32569;51.762;8.564;2023-07-22T05:39:50;14.10;99.90
15231;DHT22;32569;51.762;8.564;2023-07-22T05:42:18;14.00;99.90
15231;DHT22;32569;51.762;8.564;2023-07-22T05:44:45;14.10;99.90
15231;DHT22;32569;51.762;8.564;2023-07-22T05:47:12;14.20;99.90
15231;DHT22;32569;51.762;8.564;2023-07-22T05:49:39;14.10;99.90
15231;DHT22;32569;51.762;8.564;2023-07-22T05:52:06;14.20;99.90
15231;DHT22;32569;51.762;8.564;2023-07-22T05:54:33;14.20;99.90
15231;DHT22;32569;51.762;8.564;2023-07-22T05:57:00;14.30;99.90
15231;DHT22;32569;51.762;8.564;2023-07-22T05:59:30;14.40;99.90
15231;DHT22;32569;51.762;8.564;2023-07-22T06:01:57;14.50;99.90
15231;DHT22;32569;51.762;8.564;2023-07-22T06:04:24;14.50;99.90
15231;DHT22;32569;51.762;8.564;2023-07-22T06:06:50;14.50;99.90
15231;DHT22;32569;51.762;8.564;2023-07-22T06:09:17;14.50;99.90
15231;DHT22;32569;51.762;8.564;2023-07-22T06:11:45;14.60;99.90
15231;DHT22;32569;51.762;8.564;2023-07-22T06:14:12;14.60;99.90
15231;DHT22;32569;51.762;8.564;2023-07-22T06:16:40;14.60;99.90
15231;DHT22;32569;51.762;8.564;2023-07-22T06:19:06;14.60;99.90
15231;DHT22;32569;51.762;8.564;2023-07-22T06:21:33;14.60;99.90
15231;DHT22;32569;51.762;8.564;2023-07-22T06:24:00;14.50;99.90
15231;DHT22;32569;51.762;8.564;2023-07-22T06:26:26;14.50;99.90
15231;DHT22;32569;51.762;8.564;2023-07-22T06:28:53;14.50;99.90
15231;DHT22;32569;51.762;8.564;2023-07-22T06:31:20;14.50;99.90
15231;DHT22;32569;51.762;8.564;2023-07-22T06:33:48;14.50;99.90
15231;DHT22;32569;51.762;8.564;2023-07-22T06:36:15;14.50;99.90
15231;DHT22;32569;51.762;8.564;2023-07-22T06:38:43;14.50;99.90
15231;DHT22;32569;51.762;8.564;2023-07-22T06:41:10;14.60;99.90
15231;DHT22;32569;51.762;8.564;2023-07-22T06:43:36;14.60;99.90
15231;DHT22;32569;51.762;8.564;2023-07-22T06:46:03;14.70;99.90
15231;DHT22;32569;51.762;8.564;2023-07-22T06:48:30;14.70;99.90
15231;DHT22;32569;51.762;8.564;2023-07-22T06:50:58;14.80;99.90
15231;DHT22;32569;51.762;8.564;2023-07-22T06:53:24;15.00;99.90
15231;DHT22;32569;51.762;8.564;2023-07-22T06:55:51;15.10;99.90
15231;DHT22;32569;51.762;8.564;2023-07-22T06:58:19;15.20;99.90
15231;DHT22;32569;51.762;8.564;2023-07-22T07:00:47;15.20;99.90
15231;DHT22;32569;51.762;8.564;2023-07-22T07:03:14;15.30;99.90
15231;DHT22;32569;51.762;8.564;2023-07-22T07:05:41;15.30;99.90
15231;DHT22;32569;51.762;8.564;2023-07-22T07:08:09;15.30;99.90
15231;DHT22;32569;51.762;8.564;2023-07-22T07:10:37;15.30;99.90
15231;DHT22;32569;51.762;8.564;2023-07-22T07:13:04;15.40;99.90
15231;DHT22;32569;51.762;8.564;2023-07-22T07:15:31;15.40;99.90
15231;DHT22;32569;51.762;8.564;2023-07-22T07:17:58;15.40;99.90
15231;DHT22;32569;51.762;8.564;2023-07-22T07:20:30;15.40;99.90
15231;DHT22;32569;51.762;8.564;2023-07-22T07:22:56;15.60;99.90
15231;DHT22;32569;51.762;8.564;2023-07-22T07:25:25;15.70;99.90
15231;DHT22;32569;51.762;8.564;2023-07-22T07:27:52;15.80;99.90
15231;DHT22;32569;51.762;8.564;2023-07-22T07:30:19;15.90;99.90
15231;DHT22;32569;51.762;8.564;2023-07-22T07:32:45;16.10;99.90
15231;DHT22;32569;51.762;8.564;2023-07-22T07:35:12;16.20;99.90
15231;DHT22;32569;51.762;8.564;2023-07-22T07:37:39;16.40;99.90
15231;DHT22;32569;51.762;8.564;2023-07-22T07:40:07;16.40;99.90
15231;DHT22;32569;51.762;8.564;2023-07-22T07:42:35;16.40;99.90
15231;DHT22;32569;51.762;8.564;2023-07-22T07:45:02;16.60;99.90
15231;DHT22;32569;51.762;8.564;2023-07-22T07:47:28;16.70;99.90
15231;DHT22;32569;51.762;8.564;2023-07-22T07:49:56;16.90;99.90
15231;DHT22;32569;51.762;8.564;2023-07-22T07:52:22;17.00;99.90
15231;DHT22;32569;51.762;8.564;2023-07-22T07:54:50;17.20;99.90
15231;DHT22;32569;51.762;8.564;2023-07-22T07:57:16;17.20;99.90
15231;DHT22;32569;51.762;8.564;2023-07-22T07:59:45;17.30;99.90
15231;DHT22;32569;51.762;8.564;2023-07-22T08:02:11;17.40;99.90
15231;DHT22;32569;51.762;8.564;2023-07-22T08:04:38;17.30;99.90
15231;DHT22;32569;51.762;8.564;2023-07-22T08:07:06;17.40;99.90
15231;DHT22;32569;51.762;8.564;2023-07-22T08:09:33;17.30;99.90
15231;DHT22;32569;51.762;8.564;2023-07-22T08:12:01;17.40;99.90
15231;DHT22;32569;51.762;8.564;2023-07-22T08:14:28;17.30;99.90
15231;DHT22;32569;51.762;8.564;2023-07-22T08:16:57;17.30;99.90
15231;DHT22;32569;51.762;8.564;2023-07-22T08:19:24;17.20;99.90
15231;DHT22;32569;51.762;8.564;2023-07-22T08:21:50;17.20;99.90
15231;DHT22;32569;51.762;8.564;2023-07-22T08:24:17;17.20;99.90
15231;DHT22;32569;51.762;8.564;2023-07-22T08:26:44;17.20;99.90
15231;DHT22;32569;51.762;8.564;2023-07-22T08:29:11;17.30;99.90
15231;DHT22;32569;51.762;8.564;2023-07-22T08:31:37;17.40;99.90
15231;DHT22;32569;51.762;8.564;2023-07-22T08:34:06;17.50;99.90
15231;DHT22;32569;51.762;8.564;2023-07-22T08:36:32;17.70;99.90
15231;DHT22;32569;51.762;8.564;2023-07-22T08:38:59;17.90;99.90
15231;DHT22;32569;51.762;8.564;2023-07-22T08:41:26;18.20;99.90
15231;DHT22;32569;51.762;8.564;2023-07-22T08:43:54;18.30;99.90
15231;DHT22;32569;51.762;8.564;2023-07-22T08:46:22;18.40;99.30
15231;DHT22;32569;51.762;8.564;2023-07-22T08:48:53;18.50;97.80
15231;DHT22;32569;51.762;8.564;2023-07-22T08:51:22;18.70;98.60
15231;DHT22;32569;51.762;8.564;2023-07-22T08:53:50;19.00;99.10
15231;DHT22;32569;51.762;8.564;2023-07-22T08:56:18;19.20;98.60
15231;DHT22;32569;51.762;8.564;2023-07-22T08:58:46;19.30;97.80
15231;DHT22;32569;51.762;8.564;2023-07-22T09:01:14;19.30;98.10
15231;DHT22;32569;51.762;8.564;2023-07-22T09:03:41;19.40;96.90
15231;DHT22;32569;51.762;8.564;2023-07-22T09:06:08;19.40;96.80
15231;DHT22;32569;51.762;8.564;2023-07-22T09:08:37;19.30;96.40
15231;DHT22;32569;51.762;8.564;2023-07-22T09:11:05;19.30;96.30
15231;DHT22;32569;51.762;8.564;2023-07-22T09:13:34;19.30;97.30
15231;DHT22;32569;51.762;8.564;2023-07-22T09:16:02;19.40;96.70
15231;DHT22;32569;51.762;8.564;2023-07-22T09:18:29;19.40;95.10
15231;DHT22;32569;51.762;8.564;2023-07-22T09:20:58;19.30;96.30
15231;DHT22;32569;51.762;8.564;2023-07-22T09:23:32;19.20;95.70
15231;DHT22;32569;51.762;8.564;2023-07-22T09:26:10;19.20;96.10
15231;DHT22;32569;51.762;8.564;2023-07-22T09:28:51;19.30;96.50
15231;DHT22;32569;51.762;8.564;2023-07-22T09:31:18;19.20;95.60
15231;DHT22;32569;51.762;8.564;2023-07-22T09:33:45;19.20;96.00
15231;DHT22;32569;51.762;8.564;2023-07-22T09:36:12;19.30;95.80
15231;DHT22;32569;51.762;8.564;2023-07-22T09:38:39;19.30;96.00
15231;DHT22;32569;51.762;8.564;2023-07-22T09:41:06;19.40;95.40
15231;DHT22;32569;51.762;8.564;2023-07-22T09:43:38;19.40;94.70
15231;DHT22;32569;51.762;8.564;2023-07-22T09:46:09;19.40;94.20
15231;DHT22;32569;51.762;8.564;2023-07-22T09:48:40;19.40;94.30
15231;DHT22;32569;51.762;8.564;2023-07-22T09:51:12;19.40;93.60
15231;DHT22;32569;51.762;8.564;2023-07-22T09:53:44;19.40;93.60
15231;DHT22;32569;51.762;8.564;2023-07-22T09:56:11;19.40;94.30
15231;DHT22;32569;51.762;8.564;2023-07-22T09:58:40;19.30;94.30
15231;DHT22;32569;51.762;8.564;2023-07-22T10:01:07;19.30;94.00
15231;DHT22;32569;51.762;8.564;2023-07-22T10:03:37;19.40;94.20
15231;DHT22;32569;51.762;8.564;2023-07-22T10:06:05;19.40;94.40
15231;DHT22;32569;51.762;8.564;2023-07-22T10:08:34;19.50;93.60
15231;DHT22;32569;51.762;8.564;2023-07-22T10:11:03;19.60;94.10
15231;DHT22;32569;51.762;8.564;2023-07-22T10:13:32;19.70;93.00
15231;DHT22;32569;51.762;8.564;2023-07-22T10:16:00;19.80;94.10
15231;DHT22;32569;51.762;8.564;2023-07-22T10:18:28;19.80;93.10
15231;DHT22;32569;51.762;8.564;2023-07-22T10:20:57;19.90;93.10
15231;DHT22;32569;51.762;8.564;2023-07-22T10:23:25;19.90;92.10
15231;DHT22;32569;51.762;8.564;2023-07-22T10:25:53;20.00;92.70
15231;DHT22;32569;51.762;8.564;2023-07-22T10:28:21;20.20;92.50
15231;DHT22;32569;51.762;8.564;2023-07-22T10:30:49;20.30;91.70
15231;DHT22;32569;51.762;8.564;2023-07-22T10:33:17;20.50;92.20
15231;DHT22;32569;51.762;8.564;2023-07-22T10:36:02;20.60;91.00
15231;DHT22;32569;51.762;8.564;2023-07-22T10:38:30;20.80;92.10
15231;DHT22;32569;51.762;8.564;2023-07-22T10:40:57;21.00;91.20
15231;DHT22;32569;51.762;8.564;2023-07-22T10:43:26;20.90;90.10
15231;DHT22;32569;51.762;8.564;2023-07-22T10:45:54;20.90;90.90
15231;DHT22;32569;51.762;8.564;2023-07-22T10:48:26;20.90;90.60
15231;DHT22;32569;51.762;8.564;2023-07-22T10:50:58;20.90;90.90
15231;DHT22;32569;51.762;8.564;2023-07-22T10:53:29;21.00;90.30
15231;DHT22;32569;51.762;8.564;2023-07-22T10:56:07;21.10;88.90
15231;DHT22;32569;51.762;8.564;2023-07-22T10:58:57;21.10;88.10
15231;DHT22;32569;51.762;8.564;2023-07-22T11:01:32;21.20;90.00
15231;DHT22;32569;51.762;8.564;2023-07-22T11:04:09;21.20;89.30
15231;DHT22;32569;51.762;8.564;2023-07-22T11:06:37;21.30;89.70
15231;DHT22;32569;51.762;8.564;2023-07-22T11:09:04;21.40;88.60
15231;DHT22;32569;51.762;8.564;2023-07-22T11:11:39;21.60;87.30
15231;DHT22;32569;51.762;8.564;2023-07-22T11:14:16;21.70;89.00
15231;DHT22;32569;51.762;8.564;2023-07-22T11:16:45;21.70;86.20
15231;DHT22;32569;51.762;8.564;2023-07-22T11:19:18;21.80;86.80
15231;DHT22;32569;51.762;8.564;2023-07-22T11:21:48;21.80;85.90
15231;DHT22;32569;51.762;8.564;2023-07-22T11:24:15;21.80;85.90
15231;DHT22;32569;51.762;8.564;2023-07-22T11:26:42;21.90;86.90
15231;DHT22;32569;51.762;8.564;2023-07-22T11:29:09;22.00;85.90
15231;DHT22;32569;51.762;8.564;2023-07-22T11:31:37;21.90;86.70
15231;DHT22;32569;51.762;8.564;2023-07-22T11:34:08;22.00;87.00
15231;DHT22;32569;51.762;8.564;2023-07-22T11:36:36;21.90;85.50
15231;DHT22;32569;51.762;8.564;2023-07-22T11:39:03;21.70;85.60
15231;DHT22;32569;51.762;8.564;2023-07-22T11:41:32;21.60;85.90
15231;DHT22;32569;51.762;8.564;2023-07-22T11:43:59;21.60;85.70
15231;DHT22;32569;51.762;8.564;2023-07-22T11:46:27;21.70;86.20
15231;DHT22;32569;51.762;8.564;2023-07-22T11:48:55;21.80;86.10
15231;DHT22;32569;51.762;8.564;2023-07-22T11:51:23;22.00;85.80
15231;DHT22;32569;51.762;8.564;2023-07-22T11:53:52;22.10;84.00
15231;DHT22;32569;51.762;8.564;2023-07-22T11:56:21;22.20;83.20
15231;DHT22;32569;51.762;8.564;2023-07-22T11:58:52;22.00;83.10
15231;DHT22;32569;51.762;8.564;2023-07-22T12:01:19;22.10;83.00
15231;DHT22;32569;51.762;8.564;2023-07-22T12:03:47;22.10;82.90
15231;DHT22;32569;51.762;8.564;2023-07-22T12:06:14;22.00;83.80
15231;DHT22;32569;51.762;8.564;2023-07-22T12:08:45;22.00;83.50
15231;DHT22;32569;51.762;8.564;2023-07-22T12:11:17;22.20;85.00
15231;DHT22;32569;51.762;8.564;2023-07-22T12:13:45;22.30;84.60
15231;DHT22;32569;51.762;8.564;2023-07-22T12:16:21;22.20;82.60
15231;DHT22;32569;51.762;8.564;2023-07-22T12:18:48;22.30;84.90
15231;DHT22;32569;51.762;8.564;2023-07-22T12:21:14;22.20;83.40
15231;DHT22;32569;51.762;8.564;2023-07-22T12:23:42;22.20;84.30
15231;DHT22;32569;51.762;8.564;2023-07-22T12:26:09;22.20;82.90
15231;DHT22;32569;51.762;8.564;2023-07-22T12:28:37;22.10;83.90
15231;DHT22;32569;51.762;8.564;2023-07-22T12:31:03;22.10;84.30
15231;DHT22;32569;51.762;8.564;2023-07-22T12:33:30;22.00;83.20
15231;DHT22;32569;51.762;8.564;2023-07-22T12:35:57;21.90;83.00
15231;DHT22;32569;51.762;8.564;2023-07-22T12:38:24;22.00;84.00
15231;DHT22;32569;51.762;8.564;2023-07-22T12:40:51;22.10;84.50
15231;DHT22;32569;51.762;8.564;2023-07-22T12:43:17;22.20;85.00
15231;DHT22;32569;51.762;8.564;2023-07-22T12:45:45;22.20;82.40
15231;DHT22;32569;51.762;8.564;2023-07-22T12:48:12;22.30;83.40
15231;DHT22;32569;51.762;8.564;2023-07-22T12:50:39;22.20;84.00
15231;DHT22;32569;51.762;8.564;2023-07-22T12:53:06;22.30;85.30
15231;DHT22;32569;51.762;8.564;2023-07-22T12:55:32;22.60;84.20
15231;DHT22;32569;51.762;8.564;2023-07-22T12:57:59;22.70;83.30
15231;DHT22;32569;51.762;8.564;2023-07-22T13:00:26;22.60;81.70
15231;DHT22;32569;51.762;8.564;2023-07-22T13:02:55;22.60;81.00
15231;DHT22;32569;51.762;8.564;2023-07-22T13:05:22;22.40;82.70
15231;DHT22;32569;51.762;8.564;2023-07-22T13:07:49;22.40;82.20
15231;DHT22;32569;51.762;8.564;2023-07-22T13:10:16;22.30;81.60
15231;DHT22;32569;51.762;8.564;2023-07-22T13:12:45;22.40;81.00
15231;DHT22;32569;51.762;8.564;2023-07-22T13:15:12;22.50;82.80
15231;DHT22;32569;51.762;8.564;2023-07-22T13:17:39;22.70;81.90
15231;DHT22;32569;51.762;8.564;2023-07-22T13:20:07;22.70;82.00
15231;DHT22;32569;51.762;8.564;2023-07-22T13:22:34;22.70;82.20
15231;DHT22;32569;51.762;8.564;2023-07-22T13:25:02;22.40;80.70
15231;DHT22;32569;51.762;8.564;2023-07-22T13:27:30;22.40;82.40
15231;DHT22;32569;51.762;8.564;2023-07-22T13:29:57;22.50;80.90
15231;DHT22;32569;51.762;8.564;2023-07-22T13:32:24;22.70;81.20
15231;DHT22;32569;51.762;8.564;2023-07-22T13:34:50;22.70;80.40
15231;DHT22;32569;51.762;8.564;2023-07-22T13:37:18;22.70;80.90
15231;DHT22;32569;51.762;8.564;2023-07-22T13:39:45;22.50;81.40
15231;DHT22;32569;51.762;8.564;2023-07-22T13:42:12;22.50;81.90
15231;DHT22;32569;51.762;8.564;2023-07-22T13:44:39;22.60;82.50
15231;DHT22;32569;51.762;8.564;2023-07-22T13:47:06;22.70;81.60
15231;DHT22;32569;51.762;8.564;2023-07-22T13:49:33;22.70;82.70
15231;DHT22;32569;51.762;8.564;2023-07-22T13:51:59;22.80;80.90
15231;DHT22;32569;51.762;8.564;2023-07-22T13:54:27;22.90;81.80
15231;DHT22;32569;51.762;8.564;2023-07-22T13:56:54;23.00;80.40
15231;DHT22;32569;51.762;8.564;2023-07-22T13:59:21;23.00;79.20
15231;DHT22;32569;51.762;8.564;2023-07-22T14:01:48;23.10;80.50
15231;DHT22;32569;51.762;8.564;2023-07-22T14:04:17;23.20;80.00
15231;DHT22;32569;51.762;8.564;2023-07-22T14:06:44;23.20;81.00
15231;DHT22;32569;51.762;8.564;2023-07-22T14:09:10;23.20;81.30
15231;DHT22;32569;51.762;8.564;2023-07-22T14:11:38;23.20;79.50
15231;DHT22;32569;51.762;8.564;2023-07-22T14:14:05;23.20;79.50
15231;DHT22;32569;51.762;8.564;2023-07-22T14:16:32;23.20;80.70
15231;DHT22;32569;51.762;8.564;2023-07-22T14:18:59;23.20;80.10
15231;DHT22;32569;51.762;8.564;2023-07-22T14:21:25;23.30;79.40
15231;DHT22;32569;51.762;8.564;2023-07-22T14:23:52;23.30;81.10
15231;DHT22;32569;51.762;8.564;2023-07-22T14:26:20;23.30;81.40
15231;DHT22;32569;51.762;8.564;2023-07-22T14:28:48;23.40;79.70
15231;DHT22;32569;51.762;8.564;2023-07-22T14:31:15;23.40;79.20
15231;DHT22;32569;51.762;8.564;2023-07-22T14:33:42;23.50;79.60
15231;DHT22;32569;51.762;8.564;2023-07-22T14:36:08;23.50;79.10
15231;DHT22;32569;51.762;8.564;2023-07-22T14:38:35;23.40;79.30
15231;DHT22;32569;51.762;8.564;2023-07-22T14:41:02;23.30;77.50
15231;DHT22;32569;51.762;8.564;2023-07-22T14:43:29;23.30;78.50
15231;DHT22;32569;51.762;8.564;2023-07-22T14:45:57;23.20;79.40
15231;DHT22;32569;51.762;8.564;2023-07-22T14:48:24;23.20;78.20
15231;DHT22;32569;51.762;8.564;2023-07-22T14:50:51;23.30;78.00
15231;DHT22;32569;51.762;8.564;2023-07-22T14:53:18;23.50;78.70
15231;DHT22;32569;51.762;8.564;2023-07-22T14:55:45;23.60;78.90
15231;DHT22;32569;51.762;8.564;2023-07-22T14:58:11;23.70;77.80
15231;DHT22;32569;51.762;8.564;2023-07-22T15:00:37;23.80;78.20
15231;DHT22;32569;51.762;8.564;2023-07-22T15:03:06;23.70;77.60
15231;DHT22;32569;51.762;8.564;2023-07-22T15:05:33;23.70;77.90
15231;DHT22;32569;51.762;8.564;2023-07-22T15:07:59;23.70;78.40
15231;DHT22;32569;51.762;8.564;2023-07-22T15:10:27;23.70;77.00
15231;DHT22;32569;51.762;8.564;2023-07-22T15:12:54;23.70;77.90
15231;DHT22;32569;51.762;8.564;2023-07-22T15:15:21;23.50;75.60
15231;DHT22;32569;51.762;8.564;2023-07-22T15:17:48;23.40;75.70
15231;DHT22;32569;51.762;8.564;2023-07-22T15:20:16;23.40;76.50
15231;DHT22;32569;51.762;8.564;2023-07-22T15:22:43;23.20;75.80
15231;DHT22;32569;51.762;8.564;2023-07-22T15:25:10;23.10;76.20
15231;DHT22;32569;51.762;8.564;2023-07-22T15:27:37;23.10;75.30
15231;DHT22;32569;51.762;8.564;2023-07-22T15:30:05;23.10;76.00
15231;DHT22;32569;51.762;8.564;2023-07-22T15:32:32;23.30;75.90